Huvudsida
METAR-TAF:

METAR-TAF

Flygplatser :

Enontekis flygplats

Enontekis, Finland

latitud: 68-21-52N, longitud: 023-25-39E, höjd: 308 m

Aktuellt väderrapport

Denna rapport gjordes för 12 minuter sedan, klockan 09:50 UTC
Vind 8 kt från syd, varierande mellan sydost och sydväst
Temperatur -5°C
Fuktighet 86%
Tryck 1000 hPa
Sikt: 2900 m
Mulet på en höjd av 1900 ft
lätt snö

METAR: EFET 200950Z AUTO 18008KT 140V220 2900 -SN OVC019 M05/M07 Q1000

Tid: 12:02 (10:02 UTC)


TAF: saknas

Aktuella väderrapporter och prognoser från 4000 flygplatser (METAR- och TAF-rapporter).

De tillgängliga stationerna syns som gula och röda prickar på kartan.

För musen över prickarna för att se namnen på stationerna.

Klicka sedan för att få väderrapporter och prognoser.

För att ändra kartan: Klicka på de gröna knapparna med ett svart kors på för att zooma in; den gröna knappen med ett streck på för att zooma ut; eller på de gröna pilarna för angränsande kartor.


METAR-TAF: